createdAt,value
2018-12-05T00:00:01.345Z,1010.46
2018-12-05T00:05:01.614Z,1010.48
2018-12-05T00:15:02.172Z,1010.31
2018-12-05T00:20:01.507Z,1010.19
2018-12-05T00:25:01.741Z,1010.13
2018-12-05T00:30:01.986Z,1010.09
2018-12-05T00:35:01.281Z,1010.09
2018-12-05T00:40:01.527Z,1010.08
2018-12-05T00:45:01.786Z,1010.05
2018-12-05T00:50:02.005Z,1010.18
2018-12-05T00:55:01.293Z,1010.26
2018-12-05T01:00:01.544Z,1010.34
2018-12-05T01:05:01.836Z,1010.35
2018-12-05T01:10:02.165Z,1010.36
2018-12-05T01:15:01.454Z,1010.33
2018-12-05T01:20:01.721Z,1010.28
2018-12-05T01:25:01.951Z,1010.27
2018-12-05T01:30:02.198Z,1010.24
2018-12-05T01:35:01.554Z,1010.16
2018-12-05T01:40:01.867Z,1010.12
2018-12-05T01:45:02.133Z,1010.06
2018-12-05T01:50:01.516Z,1010.08
2018-12-05T01:55:01.925Z,1010.04
2018-12-05T02:00:02.156Z,1010.01
2018-12-05T02:05:01.635Z,1010
2018-12-05T02:10:01.488Z,1010.02
2018-12-05T02:15:01.781Z,1010.08
2018-12-05T02:20:02.043Z,1010.06
2018-12-05T02:25:01.333Z,1009.95
2018-12-05T02:30:01.652Z,1009.89
2018-12-05T02:35:01.947Z,1009.84
2018-12-05T02:40:02.196Z,1009.84
2018-12-05T02:45:01.435Z,1009.88
2018-12-05T02:50:01.796Z,1009.85
2018-12-05T02:55:02.149Z,1009.83
2018-12-05T03:00:01.491Z,1009.75
2018-12-05T03:05:01.797Z,1009.59
2018-12-05T03:10:02.046Z,1009.48
2018-12-05T03:15:01.287Z,1009.41
2018-12-05T03:20:01.587Z,1009.41
2018-12-05T03:25:02.014Z,1009.41
2018-12-05T03:30:01.390Z,1009.49
2018-12-05T03:35:01.720Z,1009.61
2018-12-05T03:40:01.458Z,1009.58
2018-12-05T03:45:01.729Z,1009.61
2018-12-05T03:50:02.196Z,1009.66
2018-12-05T03:55:01.524Z,1009.61
2018-12-05T04:00:02.309Z,1009.52
2018-12-05T04:05:01.624Z,1009.48
2018-12-05T04:10:01.919Z,1009.47
2018-12-05T04:15:02.254Z,1009.52
2018-12-05T04:20:01.544Z,1009.51
2018-12-05T04:25:01.775Z,1009.5
2018-12-05T04:30:02.054Z,1009.53
2018-12-05T04:35:01.356Z,1009.6
2018-12-05T04:40:01.642Z,1009.63
2018-12-05T04:45:01.949Z,1009.69
2018-12-05T04:50:02.242Z,1009.65
2018-12-05T04:55:01.504Z,1009.66
2018-12-05T05:00:01.766Z,1009.63
2018-12-05T05:05:02.022Z,1009.5
2018-12-05T05:10:01.344Z,1009.55
2018-12-05T05:15:01.637Z,1009.56
2018-12-05T05:20:01.957Z,1009.52
2018-12-05T05:25:02.339Z,1009.48
2018-12-05T05:30:01.566Z,1009.44
2018-12-05T05:35:01.998Z,1009.33
2018-12-05T05:40:02.194Z,1009.31
2018-12-05T05:45:01.495Z,1009.26
2018-12-05T05:50:01.747Z,1009.16
2018-12-05T05:55:01.987Z,1009.21
2018-12-05T06:00:01.275Z,1009.15
2018-12-05T06:05:01.571Z,1009.27
2018-12-05T06:10:01.829Z,1009.31
2018-12-05T06:15:02.097Z,1009.23
2018-12-05T06:20:01.400Z,1009.33
2018-12-05T06:25:01.631Z,1009.3
2018-12-05T06:30:01.900Z,1009.25
2018-12-05T06:35:02.143Z,1009.2
2018-12-05T06:40:01.423Z,1009.23
2018-12-05T06:45:01.709Z,1009.18
2018-12-05T06:50:01.984Z,1009.18
2018-12-05T06:55:02.297Z,1009.4
2018-12-05T07:00:01.558Z,1009.26
2018-12-05T07:05:01.834Z,1009.34
2018-12-05T07:10:02.061Z,1009.4
2018-12-05T07:15:01.309Z,1009.32
2018-12-05T07:20:01.659Z,1009.34
2018-12-05T07:25:01.938Z,1009.3
2018-12-05T07:30:02.206Z,1009.42
2018-12-05T07:35:01.533Z,1009.41
2018-12-05T07:40:01.831Z,1009.42
2018-12-05T07:45:02.066Z,1009.42
2018-12-05T07:50:01.356Z,1009.45
2018-12-05T07:55:01.641Z,1009.38
2018-12-05T08:00:01.880Z,1009.4
2018-12-05T08:05:02.118Z,1009.24
2018-12-05T08:10:01.379Z,1009.25
2018-12-05T08:15:01.654Z,1009.3
2018-12-05T08:20:01.957Z,1009.28
2018-12-05T08:25:02.210Z,1009.2
2018-12-05T08:30:01.506Z,1009.06
2018-12-05T08:35:01.860Z,1009.01
2018-12-05T08:40:02.094Z,1008.87
2018-12-05T08:45:01.360Z,1008.86
2018-12-05T08:50:01.638Z,1008.78
2018-12-05T08:55:01.914Z,1008.66
2018-12-05T09:00:02.147Z,1008.64
2018-12-05T09:05:01.467Z,1008.72
2018-12-05T09:10:01.740Z,1008.72
2018-12-05T09:15:02.003Z,1008.7
2018-12-05T09:20:01.290Z,1008.82
2018-12-05T09:25:01.556Z,1008.67
2018-12-05T09:30:01.903Z,1008.7
2018-12-05T09:35:02.142Z,1008.51
2018-12-05T09:40:01.422Z,1008.53
2018-12-05T09:45:01.684Z,1008.46
2018-12-05T09:50:01.916Z,1008.31
2018-12-05T09:55:02.135Z,1008.21
2018-12-05T10:00:01.436Z,1008.12
2018-12-05T10:05:01.689Z,1008.18
2018-12-05T10:10:02.021Z,1008.09
2018-12-05T10:15:01.330Z,1008.1
2018-12-05T10:20:01.629Z,1008.1
2018-12-05T10:25:01.861Z,1008.04
2018-12-05T10:30:02.080Z,1008.02
2018-12-05T10:35:01.372Z,1008.05
2018-12-05T10:40:01.664Z,1008.08
2018-12-05T10:45:01.928Z,1008.07
2018-12-05T10:50:02.152Z,1007.98
2018-12-05T10:55:01.430Z,1007.84
2018-12-05T11:00:01.745Z,1007.7
2018-12-05T11:05:02.054Z,1007.58
2018-12-05T11:10:01.346Z,1007.47
2018-12-05T11:15:01.609Z,1007.38
2018-12-05T11:20:01.916Z,1007.38
2018-12-05T11:25:02.158Z,1007.32
2018-12-05T11:30:01.420Z,1007.17
2018-12-05T11:35:01.696Z,1007.09
2018-12-05T11:40:01.966Z,1007.01
2018-12-05T11:45:02.204Z,1006.81
2018-12-05T11:50:01.482Z,1006.73
2018-12-05T11:55:01.761Z,1006.64
2018-12-05T12:00:02.016Z,1006.66
2018-12-05T12:05:01.350Z,1006.54
2018-12-05T12:10:01.643Z,1006.5
2018-12-05T12:15:01.908Z,1006.6
2018-12-05T12:20:02.147Z,1006.57
2018-12-05T12:25:01.424Z,1006.49
2018-12-05T12:30:01.703Z,1006.48
2018-12-05T12:35:01.980Z,1006.34
2018-12-05T12:40:02.214Z,1006.4
2018-12-05T12:45:01.508Z,1006.29
2018-12-05T12:50:01.776Z,1006.24
2018-12-05T12:55:02.194Z,1006.14
2018-12-05T13:00:01.471Z,1006.22
2018-12-05T13:05:01.750Z,1006.11
2018-12-05T13:10:01.987Z,1006.01
2018-12-05T13:15:01.255Z,1005.99
2018-12-05T13:20:01.543Z,1005.89
2018-12-05T13:25:01.806Z,1005.75
2018-12-05T13:30:02.076Z,1005.73
2018-12-05T13:35:01.416Z,1005.61
2018-12-05T13:40:01.730Z,1005.47
2018-12-05T13:45:02.038Z,1005.39
2018-12-05T13:50:01.347Z,1005.24
2018-12-05T13:55:01.621Z,1005.18
2018-12-05T14:00:01.880Z,1005.12
2018-12-05T14:05:02.111Z,1005.02
2018-12-05T14:10:01.392Z,1005.02
2018-12-05T14:15:01.738Z,1004.96
2018-12-05T14:20:02.013Z,1004.95
2018-12-05T14:25:01.777Z,1004.95
2018-12-05T14:30:02.005Z,1004.92
2018-12-05T14:35:01.319Z,1005.01
2018-12-05T14:40:01.609Z,1004.9
2018-12-05T14:45:01.913Z,1004.89
2018-12-05T14:50:02.149Z,1004.86
2018-12-05T14:55:01.470Z,1004.79
2018-12-05T15:00:01.754Z,1004.67
2018-12-05T15:05:02.028Z,1004.57
2018-12-05T15:10:01.310Z,1004.41
2018-12-05T15:15:01.611Z,1004.41
2018-12-05T15:20:01.887Z,1004.38
2018-12-05T15:25:02.113Z,1004.27
2018-12-05T15:30:01.406Z,1004.15
2018-12-05T15:35:01.760Z,1003.98
2018-12-05T15:40:02.032Z,1003.9
2018-12-05T15:45:01.342Z,1003.82
2018-12-05T15:50:01.686Z,1003.63
2018-12-05T15:55:01.958Z,1003.57
2018-12-05T16:00:02.204Z,1003.45
2018-12-05T16:05:01.459Z,1003.39
2018-12-05T16:10:01.738Z,1003.16
2018-12-05T16:15:01.978Z,1003.12
2018-12-05T16:20:02.367Z,1003.08
2018-12-05T16:25:01.631Z,1003.02
2018-12-05T16:30:01.946Z,1002.91
2018-12-05T16:35:02.304Z,1002.82
2018-12-05T16:40:01.581Z,1002.72
2018-12-05T16:45:01.856Z,1002.69
2018-12-05T16:50:02.128Z,1002.89
2018-12-05T16:55:01.440Z,1002.95
2018-12-05T17:00:01.722Z,1002.96
2018-12-05T17:05:01.984Z,1002.93
2018-12-05T17:10:02.217Z,1002.92
2018-12-05T17:15:01.486Z,1003
2018-12-05T17:20:01.837Z,1002.96
2018-12-05T17:25:02.067Z,1002.79
2018-12-05T17:30:01.346Z,1002.69
2018-12-05T17:35:01.660Z,1002.51
2018-12-05T17:40:01.948Z,1002.43
2018-12-05T17:45:02.171Z,1002.4
2018-12-05T17:50:01.493Z,1002.19
2018-12-05T17:55:01.738Z,1001.97
2018-12-05T18:00:01.982Z,1001.91
2018-12-05T18:05:01.304Z,1001.69
2018-12-05T18:10:01.583Z,1001.8
2018-12-05T18:15:01.808Z,1001.82
2018-12-05T18:20:02.097Z,1001.86
2018-12-05T18:25:01.447Z,1001.88
2018-12-05T18:30:01.763Z,1001.78
2018-12-05T18:35:02.065Z,1001.52
2018-12-05T18:40:01.339Z,1001.52
2018-12-05T18:45:01.616Z,1001.73
2018-12-05T18:50:01.897Z,1001.62
2018-12-05T18:55:02.119Z,1001.46
2018-12-05T19:00:01.917Z,1001.36
2018-12-05T19:05:02.150Z,1001.28
2018-12-05T19:10:01.433Z,1001.19
2018-12-05T19:15:01.705Z,1001.24
2018-12-05T19:20:01.958Z,1001.15
2018-12-05T19:25:02.182Z,1000.86
2018-12-05T19:30:01.441Z,1000.81
2018-12-05T19:35:01.735Z,1000.7
2018-12-05T19:40:01.992Z,1000.65
2018-12-05T19:45:01.275Z,1000.43
2018-12-05T19:50:01.537Z,1000.57
2018-12-05T19:55:01.809Z,1000.44
2018-12-05T20:00:02.115Z,1000.36
2018-12-05T20:05:01.428Z,1000.41
2018-12-05T20:10:01.692Z,1000.52
2018-12-05T20:15:01.978Z,1000.29
2018-12-05T20:20:02.214Z,1000.25
2018-12-05T20:25:01.443Z,1000.33
2018-12-05T20:30:01.707Z,1000.34
2018-12-05T20:35:01.965Z,1000.32
2018-12-05T20:40:02.195Z,1000.24
2018-12-05T20:45:01.557Z,1000.22
2018-12-05T20:50:01.806Z,1000.18
2018-12-05T20:55:02.117Z,1000.1
2018-12-05T21:00:01.384Z,1000.11
2018-12-05T21:05:01.616Z,999.95
2018-12-05T21:10:01.889Z,999.83
2018-12-05T21:15:01.369Z,999.82
2018-12-05T21:20:01.609Z,999.76
2018-12-05T21:25:01.855Z,999.8
2018-12-05T21:30:03.072Z,999.84
2018-12-05T21:35:01.352Z,999.99
2018-12-05T21:40:01.576Z,1000.07
2018-12-05T21:45:01.808Z,1000.02
2018-12-05T21:50:02.110Z,999.94
2018-12-05T21:55:01.388Z,999.94
2018-12-05T22:00:01.637Z,999.96
2018-12-05T22:05:01.902Z,999.92
2018-12-05T22:10:02.153Z,999.95
2018-12-05T22:15:01.363Z,999.92
2018-12-05T22:20:01.595Z,999.89
2018-12-05T22:25:01.821Z,999.84
2018-12-05T22:30:02.077Z,999.87
2018-12-05T22:35:01.376Z,999.72
2018-12-05T22:40:01.669Z,999.68
2018-12-05T22:45:01.924Z,999.59
2018-12-05T22:50:02.181Z,999.52
2018-12-05T22:55:01.444Z,999.51
2018-12-05T23:00:01.667Z,999.37
2018-12-05T23:05:01.917Z,999.36
2018-12-05T23:10:02.165Z,999.6
2018-12-05T23:15:01.455Z,999.57
2018-12-05T23:20:01.679Z,999.49
2018-12-05T23:25:01.904Z,999.54
2018-12-05T23:30:02.175Z,999.44
2018-12-05T23:35:01.433Z,999.27
2018-12-05T23:40:01.704Z,999.11
2018-12-05T23:45:01.966Z,999.03
2018-12-05T23:50:02.206Z,998.95
2018-12-05T23:55:01.425Z,998.96
